createdAt,value
2018-05-15T00:01:44.447Z,73.70
2018-05-15T00:04:11.877Z,73.80
2018-05-15T00:06:39.389Z,73.60
2018-05-15T00:09:06.843Z,73.80
2018-05-15T00:11:35.045Z,73.30
2018-05-15T00:14:02.496Z,73.20
2018-05-15T00:16:30.750Z,74.40
2018-05-15T00:18:58.194Z,74.40
2018-05-15T00:21:25.639Z,73.50
2018-05-15T00:23:53.110Z,73.00
2018-05-15T00:26:20.541Z,72.60
2018-05-15T00:28:47.974Z,73.40
2018-05-15T00:31:15.478Z,73.00
2018-05-15T00:33:42.998Z,73.10
2018-05-15T00:36:10.468Z,73.20
2018-05-15T00:38:38.035Z,71.90
2018-05-15T00:41:05.468Z,72.60
2018-05-15T00:43:32.963Z,72.50
2018-05-15T00:46:00.695Z,72.80
2018-05-15T00:48:28.240Z,73.00
2018-05-15T00:50:55.698Z,72.00
2018-05-15T00:53:23.212Z,73.00
2018-05-15T00:55:50.632Z,72.40
2018-05-15T00:58:18.102Z,72.70
2018-05-15T01:00:45.522Z,72.00
2018-05-15T01:03:12.962Z,71.70
2018-05-15T01:05:40.414Z,71.50
2018-05-15T01:08:07.896Z,72.80
2018-05-15T01:10:35.356Z,73.30
2018-05-15T01:13:02.840Z,71.30
2018-05-15T01:15:30.296Z,71.50
2018-05-15T01:17:57.737Z,71.70
2018-05-15T01:20:25.930Z,71.60
2018-05-15T01:22:53.418Z,71.60
2018-05-15T01:25:20.847Z,70.40
2018-05-15T01:27:48.278Z,69.80
2018-05-15T01:30:15.703Z,71.10
2018-05-15T01:32:43.892Z,71.10
2018-05-15T01:35:12.095Z,70.20
2018-05-15T01:37:39.538Z,70.20
2018-05-15T01:40:07.757Z,70.60
2018-05-15T01:42:35.270Z,70.60
2018-05-15T01:45:02.711Z,70.90
2018-05-15T01:47:30.191Z,71.60
2018-05-15T01:49:57.642Z,70.40
2018-05-15T01:52:25.117Z,70.40
2018-05-15T01:54:52.573Z,70.70
2018-05-15T01:57:20.047Z,71.30
2018-05-15T01:59:47.473Z,70.80
2018-05-15T02:02:14.890Z,70.90
2018-05-15T02:04:42.323Z,71.30
2018-05-15T02:07:10.502Z,71.20
2018-05-15T02:09:38.724Z,71.90
2018-05-15T02:12:06.216Z,71.80
2018-05-15T02:14:33.786Z,71.50
2018-05-15T02:17:01.236Z,71.80
2018-05-15T02:19:28.683Z,72.10
2018-05-15T02:21:56.876Z,72.90
2018-05-15T02:24:24.361Z,72.90
2018-05-15T02:26:51.783Z,72.50
2018-05-15T02:29:20.185Z,72.80
2018-05-15T02:31:47.691Z,73.20
2018-05-15T02:34:15.119Z,72.80
2018-05-15T02:36:42.547Z,73.30
2018-05-15T02:39:09.966Z,74.10
2018-05-15T02:41:38.193Z,73.90
2018-05-15T02:44:05.631Z,73.90
2018-05-15T02:46:33.836Z,73.60
2018-05-15T02:49:01.352Z,73.50
2018-05-15T02:51:28.773Z,73.90
2018-05-15T02:53:56.254Z,74.20
2018-05-15T02:56:23.679Z,75.20
2018-05-15T02:58:51.107Z,74.50
2018-05-15T03:01:18.567Z,74.20
2018-05-15T03:03:45.990Z,74.60
2018-05-15T03:06:13.411Z,75.30
2018-05-15T03:08:40.868Z,75.20
2018-05-15T03:11:08.299Z,75.40
2018-05-15T03:13:35.824Z,75.00
2018-05-15T03:16:03.307Z,75.20
2018-05-15T03:18:30.743Z,75.40
2018-05-15T03:20:58.266Z,75.20
2018-05-15T03:23:25.811Z,75.60
2018-05-15T03:25:53.231Z,74.70
2018-05-15T03:28:21.427Z,75.50
2018-05-15T03:30:49.631Z,75.90
2018-05-15T03:33:17.071Z,75.90
2018-05-15T03:35:45.254Z,77.00
2018-05-15T03:38:12.782Z,76.10
2018-05-15T03:40:40.249Z,77.00
2018-05-15T03:43:07.765Z,76.50
2018-05-15T03:45:35.215Z,77.10
2018-05-15T03:48:02.654Z,77.60
2018-05-15T03:50:30.096Z,77.90
2018-05-15T03:52:58.287Z,80.40
2018-05-15T03:55:25.713Z,80.40
2018-05-15T03:57:54.650Z,79.10
2018-05-15T04:00:34.743Z,78.90
2018-05-15T04:03:14.142Z,78.70
2018-05-15T04:05:54.314Z,79.00
2018-05-15T04:08:21.823Z,78.90
2018-05-15T04:10:49.391Z,79.00
2018-05-15T04:13:16.709Z,79.00
2018-05-15T04:15:44.243Z,79.60
2018-05-15T04:18:11.712Z,79.90
2018-05-15T04:20:39.182Z,80.40
2018-05-15T04:23:06.675Z,79.80
2018-05-15T04:25:34.112Z,79.70
2018-05-15T04:28:01.600Z,79.40
2018-05-15T04:30:29.073Z,79.10
2018-05-15T04:32:56.522Z,79.00
2018-05-15T04:35:24.061Z,79.10
2018-05-15T04:37:52.186Z,78.90
2018-05-15T04:40:19.610Z,78.80
2018-05-15T04:42:47.031Z,78.90
2018-05-15T04:45:14.495Z,78.00
2018-05-15T04:47:41.910Z,78.40
2018-05-15T04:50:09.434Z,79.00
2018-05-15T04:52:36.906Z,78.70
2018-05-15T04:55:04.384Z,78.90
2018-05-15T04:57:31.813Z,78.70
2018-05-15T05:00:00.023Z,79.00
2018-05-15T05:02:27.467Z,78.90
2018-05-15T05:04:55.686Z,79.40
2018-05-15T05:07:23.151Z,79.40
2018-05-15T05:09:50.627Z,79.50
2018-05-15T05:12:18.092Z,80.00
2018-05-15T05:14:45.521Z,80.00
2018-05-15T05:17:13.035Z,79.70
2018-05-15T05:19:40.458Z,80.00
2018-05-15T05:22:07.978Z,80.10
2018-05-15T05:24:35.459Z,79.40
2018-05-15T05:27:02.941Z,80.00
2018-05-15T05:29:30.385Z,80.40
2018-05-15T05:31:57.831Z,80.40
2018-05-15T05:34:26.050Z,78.80
2018-05-15T05:36:53.510Z,78.70
2018-05-15T05:39:20.978Z,79.20
2018-05-15T05:41:48.451Z,79.50
2018-05-15T05:44:15.922Z,79.80
2018-05-15T05:46:43.388Z,78.90
2018-05-15T05:49:10.858Z,78.40
2018-05-15T05:51:38.330Z,78.90
2018-05-15T05:54:05.811Z,79.00
2018-05-15T05:56:33.243Z,79.40
2018-05-15T05:59:01.466Z,78.60
2018-05-15T06:01:29.043Z,78.50
2018-05-15T06:03:56.476Z,79.10
2018-05-15T06:06:24.687Z,78.60
2018-05-15T06:08:52.159Z,78.40
2018-05-15T06:11:19.622Z,79.00
2018-05-15T06:13:47.099Z,78.90
2018-05-15T06:16:14.541Z,78.00
2018-05-15T06:18:42.750Z,77.80
2018-05-15T06:21:10.219Z,77.60
2018-05-15T06:23:37.648Z,78.40
2018-05-15T06:26:05.184Z,76.70
2018-05-15T06:28:32.660Z,76.90
2018-05-15T06:31:00.119Z,77.00
2018-05-15T06:33:27.570Z,78.00
2018-05-15T06:35:54.995Z,77.70
2018-05-15T06:38:22.414Z,76.40
2018-05-15T06:40:49.878Z,77.30
2018-05-15T06:43:17.346Z,75.80
2018-05-15T06:45:44.770Z,76.30
2018-05-15T06:48:12.290Z,77.00
2018-05-15T06:50:39.719Z,77.60
2018-05-15T06:53:07.271Z,77.00
2018-05-15T06:55:34.839Z,75.80
2018-05-15T06:58:02.309Z,74.80
2018-05-15T07:00:29.763Z,75.30
2018-05-15T07:02:57.254Z,75.70
2018-05-15T07:05:24.793Z,75.70
2018-05-15T07:07:52.207Z,78.00
2018-05-15T07:10:20.446Z,76.90
2018-05-15T07:12:47.911Z,76.80
2018-05-15T07:15:15.342Z,75.80
2018-05-15T07:17:42.759Z,74.80
2018-05-15T07:20:10.219Z,73.90
2018-05-15T07:22:37.662Z,73.00
2018-05-15T07:25:05.918Z,73.50
2018-05-15T07:27:33.389Z,73.40
2018-05-15T07:30:00.838Z,74.80
2018-05-15T07:32:28.524Z,73.10
2018-05-15T07:34:55.979Z,73.20
2018-05-15T07:37:23.402Z,72.70
2018-05-15T07:39:51.611Z,72.90
2018-05-15T07:42:19.027Z,72.80
2018-05-15T07:44:47.217Z,72.60
2018-05-15T07:47:14.643Z,72.60
2018-05-15T07:49:42.387Z,73.00
2018-05-15T07:52:09.890Z,71.00
2018-05-15T07:54:37.391Z,72.20
2018-05-15T07:57:04.823Z,72.50
2018-05-15T07:59:32.335Z,70.50
2018-05-15T08:01:59.826Z,69.90
2018-05-15T08:04:27.312Z,70.40
2018-05-15T08:06:54.733Z,70.50
2018-05-15T08:09:22.150Z,71.00
2018-05-15T08:11:50.359Z,69.20
2018-05-15T08:14:17.829Z,69.20
2018-05-15T08:16:45.262Z,67.40
2018-05-15T08:19:12.699Z,68.60
2018-05-15T08:21:40.138Z,68.20
2018-05-15T08:24:07.612Z,66.90
2018-05-15T08:26:35.095Z,67.70
2018-05-15T08:29:03.555Z,66.20
2018-05-15T08:31:31.788Z,67.70
2018-05-15T08:33:59.233Z,67.70
2018-05-15T08:36:26.654Z,67.90
2018-05-15T08:38:54.124Z,68.40
2018-05-15T08:41:21.647Z,67.00
2018-05-15T08:43:49.108Z,66.40
2018-05-15T08:46:16.578Z,67.70
2018-05-15T08:48:43.998Z,65.50
2018-05-15T08:51:12.349Z,65.70
2018-05-15T08:53:39.810Z,68.00
2018-05-15T08:56:07.411Z,69.30
2018-05-15T08:58:34.889Z,69.60
2018-05-15T09:01:02.484Z,68.70
2018-05-15T09:03:29.979Z,64.90
2018-05-15T09:05:57.615Z,66.40
2018-05-15T09:08:25.071Z,67.30
2018-05-15T09:10:52.486Z,64.60
2018-05-15T09:13:20.694Z,64.60
2018-05-15T09:15:48.165Z,64.50
2018-05-15T09:18:15.643Z,63.50
2018-05-15T09:20:43.065Z,66.30
2018-05-15T09:23:10.483Z,63.00
2018-05-15T09:25:37.962Z,63.30
2018-05-15T09:28:05.457Z,62.80
2018-05-15T09:30:32.922Z,62.40
2018-05-15T09:33:00.487Z,63.10
2018-05-15T09:35:28.137Z,63.50
2018-05-15T09:37:55.624Z,58.00
2018-05-15T09:40:23.059Z,58.80
2018-05-15T09:42:50.538Z,61.90
2018-05-15T09:45:17.964Z,62.20
2018-05-15T09:47:45.386Z,65.40
2018-05-15T09:50:12.814Z,62.50
2018-05-15T09:52:41.076Z,61.10
2018-05-15T09:55:08.552Z,61.10
2018-05-15T09:57:36.095Z,59.50
2018-05-15T10:00:03.580Z,57.80
2018-05-15T10:02:31.047Z,57.30
2018-05-15T10:04:58.630Z,57.00
2018-05-15T10:07:26.064Z,57.60
2018-05-15T10:09:53.517Z,54.00
2018-05-15T10:12:20.950Z,53.10
2018-05-15T10:14:48.474Z,54.90
2018-05-15T10:17:15.934Z,52.80
2018-05-15T10:19:43.411Z,51.30
2018-05-15T10:22:10.875Z,52.80
2018-05-15T10:24:38.374Z,53.10
2018-05-15T10:27:05.852Z,55.70
2018-05-15T10:29:33.626Z,56.50
2018-05-15T10:32:01.110Z,59.00
2018-05-15T10:34:28.670Z,54.20
2018-05-15T10:36:56.092Z,56.00
2018-05-15T10:39:23.561Z,51.00
2018-05-15T10:41:51.052Z,50.30
2018-05-15T10:44:18.470Z,50.20
2018-05-15T10:46:45.898Z,49.30
2018-05-15T10:49:13.405Z,44.20
2018-05-15T10:51:40.930Z,43.60
2018-05-15T10:54:08.425Z,42.90
2018-05-15T10:56:35.899Z,42.20
2018-05-15T10:59:03.362Z,43.90
2018-05-15T11:01:32.417Z,42.00
2018-05-15T11:04:00.707Z,40.90
2018-05-15T11:06:29.277Z,40.30
2018-05-15T11:08:56.735Z,40.00
2018-05-15T11:11:24.169Z,39.20
2018-05-15T11:13:51.634Z,41.20
2018-05-15T11:16:19.058Z,40.80
2018-05-15T11:18:46.686Z,37.50
2018-05-15T11:21:25.906Z,37.30
2018-05-15T11:24:05.436Z,40.00
2018-05-15T11:26:33.310Z,42.50
2018-05-15T11:29:00.811Z,37.30
2018-05-15T11:31:28.364Z,38.80
2018-05-15T11:33:55.778Z,38.80
2018-05-15T11:36:23.219Z,37.90
2018-05-15T11:38:51.403Z,38.10
2018-05-15T11:41:19.595Z,38.70
2018-05-15T11:43:47.015Z,38.70
2018-05-15T11:46:14.451Z,37.50
2018-05-15T11:48:42.374Z,38.20
2018-05-15T11:51:10.442Z,36.40
2018-05-15T11:53:36.856Z,37.60
2018-05-15T11:56:04.374Z,36.60
2018-05-15T11:58:32.085Z,37.10
2018-05-15T12:00:59.610Z,38.70
2018-05-15T12:03:27.074Z,37.30
2018-05-15T12:05:54.651Z,39.10
2018-05-15T12:08:22.165Z,37.50
2018-05-15T12:10:49.514Z,39.80
2018-05-15T12:13:16.923Z,39.30
2018-05-15T12:15:44.357Z,39.60
2018-05-15T12:18:11.844Z,40.90
2018-05-15T12:20:40.054Z,40.80
2018-05-15T12:23:07.536Z,40.80
2018-05-15T12:25:34.978Z,41.20
2018-05-15T12:28:02.515Z,38.50
2018-05-15T12:30:29.977Z,41.20
2018-05-15T12:32:57.528Z,37.80
2018-05-15T12:35:24.947Z,40.40
2018-05-15T12:37:53.142Z,41.30
2018-05-15T12:40:21.327Z,41.30
2018-05-15T12:42:49.536Z,42.40
2018-05-15T12:45:17.006Z,42.40
2018-05-15T12:47:44.511Z,43.20
2018-05-15T12:50:11.899Z,41.90
2018-05-15T12:52:39.382Z,43.00
2018-05-15T12:55:07.620Z,37.70
2018-05-15T12:57:36.159Z,37.20
2018-05-15T13:00:03.849Z,38.30
2018-05-15T13:02:32.151Z,41.50
2018-05-15T13:04:59.665Z,41.60
2018-05-15T13:07:27.142Z,41.50
2018-05-15T13:09:54.576Z,40.50
2018-05-15T13:12:21.998Z,41.30
2018-05-15T13:14:49.522Z,41.60
2018-05-15T13:17:16.979Z,42.70
2018-05-15T13:19:44.452Z,42.90
2018-05-15T13:22:11.922Z,42.00
2018-05-15T13:24:39.497Z,39.50
2018-05-15T13:27:06.844Z,40.30
2018-05-15T13:29:34.385Z,42.20
2018-05-15T13:32:01.921Z,42.00
2018-05-15T13:34:29.444Z,41.30
2018-05-15T13:36:57.017Z,39.50
2018-05-15T13:39:25.206Z,37.90
2018-05-15T13:41:54.339Z,39.40
2018-05-15T13:44:21.766Z,39.30
2018-05-15T13:46:49.282Z,38.50
2018-05-15T13:49:16.715Z,38.60
2018-05-15T13:51:44.187Z,40.60
2018-05-15T13:54:12.477Z,41.70
2018-05-15T13:56:40.724Z,41.00
2018-05-15T13:59:08.173Z,40.90
2018-05-15T14:01:35.741Z,39.30
2018-05-15T14:04:03.320Z,41.40
2018-05-15T14:06:30.852Z,39.90
2018-05-15T14:08:58.777Z,38.30
2018-05-15T14:11:26.239Z,37.80
2018-05-15T14:13:53.662Z,36.40
2018-05-15T14:16:21.091Z,36.90
2018-05-15T14:18:48.529Z,36.20
2018-05-15T14:21:16.011Z,36.00
2018-05-15T14:23:43.482Z,36.20
2018-05-15T14:26:10.951Z,36.50
2018-05-15T14:28:38.481Z,35.90
2018-05-15T14:31:06.749Z,37.50
2018-05-15T14:33:34.358Z,37.10
2018-05-15T14:36:01.914Z,38.50
2018-05-15T14:38:29.576Z,37.00
2018-05-15T14:40:57.009Z,34.60
2018-05-15T14:43:25.607Z,35.00
2018-05-15T14:45:53.109Z,34.60
2018-05-15T14:48:20.554Z,34.00
2018-05-15T14:54:11.466Z,33.50
2018-05-15T14:56:39.670Z,34.50
2018-05-15T14:59:07.862Z,33.50
2018-05-15T15:01:35.335Z,33.50
2018-05-15T15:04:02.815Z,35.90
2018-05-15T15:06:30.363Z,34.40
2018-05-15T15:08:59.519Z,35.60
2018-05-15T15:11:27.018Z,35.60
2018-05-15T15:13:55.252Z,35.90
2018-05-15T15:16:22.759Z,35.90
2018-05-15T15:18:50.180Z,35.80
2018-05-15T15:21:17.656Z,34.20
2018-05-15T15:23:45.174Z,33.10
2018-05-15T15:26:12.598Z,34.40
2018-05-15T15:28:40.010Z,33.70
2018-05-15T15:31:07.470Z,35.10
2018-05-15T15:33:34.915Z,35.40
2018-05-15T15:36:02.653Z,35.80
2018-05-15T15:38:30.281Z,37.00
2018-05-15T15:40:58.025Z,37.20
2018-05-15T15:43:25.573Z,37.80
2018-05-15T15:45:53.807Z,37.70
2018-05-15T15:48:21.229Z,37.70
2018-05-15T15:50:49.446Z,39.20
2018-05-15T15:53:16.881Z,39.00
2018-05-15T15:55:44.532Z,38.20
2018-05-15T15:58:12.011Z,38.30
2018-05-15T16:00:39.445Z,37.90
2018-05-15T16:03:06.970Z,39.10
2018-05-15T16:05:35.273Z,39.70
2018-05-15T16:08:03.752Z,40.50
2018-05-15T16:10:32.026Z,41.40
2018-05-15T16:12:59.655Z,41.30
2018-05-15T16:15:28.012Z,42.50
2018-05-15T16:17:56.189Z,43.00
2018-05-15T16:20:24.378Z,42.70
2018-05-15T16:22:51.883Z,42.70
2018-05-15T16:25:19.226Z,42.70
2018-05-15T16:27:47.442Z,43.40
2018-05-15T16:30:14.858Z,43.40
2018-05-15T16:32:42.320Z,44.00
2018-05-15T16:35:09.894Z,44.40
2018-05-15T16:37:37.411Z,45.50
2018-05-15T16:40:04.928Z,44.50
2018-05-15T16:42:32.427Z,45.60
2018-05-15T16:45:00.651Z,46.30
2018-05-15T16:47:28.188Z,46.30
2018-05-15T16:49:55.712Z,46.90
2018-05-15T16:52:23.158Z,47.50
2018-05-15T16:54:50.611Z,47.90
2018-05-15T16:57:18.799Z,48.10
2018-05-15T16:59:47.003Z,47.90
2018-05-15T17:02:14.471Z,47.90
2018-05-15T17:04:41.957Z,49.00
2018-05-15T17:07:09.508Z,48.90
2018-05-15T17:09:36.962Z,48.50
2018-05-15T17:12:05.291Z,48.90
2018-05-15T17:14:32.792Z,48.70
2018-05-15T17:17:00.269Z,48.60
2018-05-15T17:19:28.860Z,47.50
2018-05-15T17:21:57.090Z,49.90
2018-05-15T17:24:30.184Z,49.30
2018-05-15T17:26:57.867Z,48.10
2018-05-15T17:29:26.106Z,46.40
2018-05-15T17:31:53.530Z,46.30
2018-05-15T17:34:21.003Z,47.80
2018-05-15T17:36:48.471Z,48.00
2018-05-15T17:39:15.942Z,47.20
2018-05-15T17:41:43.398Z,47.90
2018-05-15T17:44:10.940Z,48.40
2018-05-15T17:46:38.515Z,48.70
2018-05-15T17:49:05.989Z,49.80
2018-05-15T17:51:33.889Z,50.10
2018-05-15T17:54:02.161Z,48.70
2018-05-15T17:56:29.612Z,48.70
2018-05-15T17:58:57.929Z,48.50
2018-05-15T18:01:26.110Z,49.10
2018-05-15T18:03:54.303Z,50.50
2018-05-15T18:06:22.490Z,50.70
2018-05-15T18:08:50.677Z,52.60
2018-05-15T18:11:18.895Z,53.30
2018-05-15T18:13:46.322Z,53.30
2018-05-15T18:16:13.940Z,53.60
2018-05-15T18:18:41.448Z,52.00
2018-05-15T18:21:08.943Z,53.00
2018-05-15T18:23:37.193Z,54.10
2018-05-15T18:26:04.687Z,54.00
2018-05-15T18:28:32.956Z,56.30
2018-05-15T18:31:00.478Z,56.30
2018-05-15T18:33:40.858Z,57.80
2018-05-15T18:36:09.264Z,57.80
2018-05-15T18:38:36.842Z,58.70
2018-05-15T18:41:04.509Z,60.80
2018-05-15T18:43:32.440Z,61.70
2018-05-15T18:46:00.101Z,63.30
2018-05-15T18:48:27.541Z,65.40
2018-05-15T18:50:55.065Z,65.60
2018-05-15T18:53:22.471Z,66.30
2018-05-15T18:55:49.891Z,66.00
2018-05-15T18:58:18.134Z,67.50
2018-05-15T19:00:45.619Z,67.40
2018-05-15T19:03:13.096Z,70.60
2018-05-15T19:05:40.598Z,73.20
2018-05-15T19:08:08.083Z,76.00
2018-05-15T19:10:36.297Z,80.90
2018-05-15T19:13:03.830Z,80.90
2018-05-15T19:15:31.388Z,83.50
2018-05-15T19:17:58.944Z,85.40
2018-05-15T19:20:26.482Z,86.00
2018-05-15T19:22:53.915Z,88.20
2018-05-15T19:25:21.424Z,89.10
2018-05-15T19:27:48.846Z,89.50
2018-05-15T19:30:16.359Z,89.70
2018-05-15T19:32:43.827Z,89.20
2018-05-15T19:35:11.330Z,89.70
2018-05-15T19:37:38.932Z,90.20
2018-05-15T19:40:12.963Z,90.60
2018-05-15T19:42:40.450Z,90.60
2018-05-15T19:45:08.705Z,91.10
2018-05-15T19:47:36.185Z,90.70
2018-05-15T19:50:04.525Z,91.10
2018-05-15T19:52:32.143Z,91.10
2018-05-15T19:54:59.675Z,91.10
2018-05-15T19:57:27.108Z,90.90
2018-05-15T19:59:55.322Z,91.00
2018-05-15T20:02:22.739Z,91.00
2018-05-15T20:04:50.167Z,90.70
2018-05-15T20:07:17.591Z,90.80
2018-05-15T20:09:45.199Z,91.00
2018-05-15T20:12:12.639Z,91.10
2018-05-15T20:14:40.252Z,91.10
2018-05-15T20:17:07.812Z,91.00
2018-05-15T20:19:35.542Z,91.30
2018-05-15T20:22:04.562Z,91.70
2018-05-15T20:24:33.018Z,91.60
2018-05-15T20:27:00.926Z,91.60
2018-05-15T20:29:29.321Z,91.50
2018-05-15T20:31:56.747Z,91.60
2018-05-15T20:34:24.175Z,91.60
2018-05-15T20:36:52.358Z,91.70
2018-05-15T20:39:20.557Z,92.00
2018-05-15T20:41:48.734Z,92.00
2018-05-15T20:44:16.927Z,92.00
2018-05-15T20:46:45.119Z,92.10
2018-05-15T20:49:13.613Z,92.10
2018-05-15T20:51:41.778Z,91.90
2018-05-15T20:54:09.975Z,91.90
2018-05-15T20:56:38.167Z,91.90
2018-05-15T20:59:06.382Z,92.50
2018-05-15T21:01:33.798Z,92.50
2018-05-15T21:04:01.229Z,92.60
2018-05-15T21:06:28.643Z,92.60
2018-05-15T21:08:56.070Z,92.70
2018-05-15T21:11:23.491Z,92.90
2018-05-15T21:13:51.687Z,92.70
2018-05-15T21:16:19.867Z,92.80
2018-05-15T21:18:48.057Z,92.90
2018-05-15T21:21:16.270Z,93.00
2018-05-15T21:23:43.705Z,93.00
2018-05-15T21:26:11.118Z,93.00
2018-05-15T21:28:38.576Z,93.60
2018-05-15T21:31:06.048Z,93.50
2018-05-15T21:33:33.479Z,93.40
2018-05-15T21:36:00.902Z,93.80
2018-05-15T21:38:28.330Z,93.60
2018-05-15T21:40:56.515Z,93.50
2018-05-15T21:43:24.731Z,93.30
2018-05-15T21:45:52.202Z,93.30
2018-05-15T21:48:19.675Z,93.20
2018-05-15T21:50:47.135Z,93.40
2018-05-15T21:53:14.559Z,93.60
2018-05-15T21:55:41.986Z,93.80
2018-05-15T21:58:09.418Z,93.70
2018-05-15T22:00:37.638Z,93.50
2018-05-15T22:03:05.098Z,93.50
2018-05-15T22:05:32.526Z,93.50
2018-05-15T22:08:00.048Z,93.20
2018-05-15T22:10:27.479Z,93.20
2018-05-15T22:13:07.512Z,93.10
2018-05-15T22:15:46.979Z,93.10
2018-05-15T22:18:26.384Z,93.20
2018-05-15T22:21:05.831Z,93.50
2018-05-15T22:23:32.770Z,94.00
2018-05-15T22:26:00.959Z,93.70
2018-05-15T22:28:28.423Z,93.70
2018-05-15T22:30:56.614Z,93.50
2018-05-15T22:33:24.794Z,93.60
2018-05-15T22:35:52.986Z,93.70
2018-05-15T22:38:20.477Z,93.70
2018-05-15T22:40:47.902Z,93.80
2018-05-15T22:43:16.087Z,93.80
2018-05-15T22:45:43.514Z,93.80
2018-05-15T22:48:10.938Z,93.80
2018-05-15T22:50:39.162Z,94.00
2018-05-15T22:53:06.582Z,94.00
2018-05-15T22:55:34.099Z,94.00
2018-05-15T22:58:01.570Z,93.70
2018-05-15T23:00:29.182Z,93.90
2018-05-15T23:02:56.706Z,93.80
2018-05-15T23:05:24.178Z,93.90
2018-05-15T23:07:51.598Z,94.00
2018-05-15T23:10:19.027Z,94.20
2018-05-15T23:12:46.486Z,94.40
2018-05-15T23:15:13.915Z,94.40
2018-05-15T23:17:41.335Z,94.60
2018-05-15T23:20:08.766Z,95.00
2018-05-15T23:22:42.866Z,95.30
2018-05-15T23:25:10.393Z,95.30
2018-05-15T23:27:37.811Z,95.20
2018-05-15T23:30:05.250Z,95.30
2018-05-15T23:32:32.707Z,95.20
2018-05-15T23:35:00.130Z,94.80
2018-05-15T23:37:28.459Z,95.20
2018-05-15T23:39:55.886Z,94.90
2018-05-15T23:42:23.399Z,95.00
2018-05-15T23:44:50.878Z,95.00
2018-05-15T23:47:18.299Z,95.10
2018-05-15T23:49:45.718Z,95.00
2018-05-15T23:52:13.146Z,95.20
2018-05-15T23:54:41.342Z,95.10
2018-05-15T23:57:09.525Z,95.00
2018-05-15T23:59:37.718Z,95.20
